createdAt,value
2023-01-10T00:00:50.511Z,98870.72
2023-01-10T00:04:53.574Z,98860.28
2023-01-10T00:08:57.610Z,98871.59
2023-01-10T00:13:19.488Z,98870.72
2023-01-10T00:17:22.493Z,98862.88
2023-01-10T00:21:25.569Z,98874.22
2023-01-10T00:25:28.726Z,98875.97
2023-01-10T00:29:34.136Z,98874.22
2023-01-10T00:33:37.989Z,98883.81
2023-01-10T00:37:41.948Z,98886.44
2023-01-10T00:42:02.400Z,98901.28
2023-01-10T00:46:07.051Z,98904.75
2023-01-10T00:50:11.146Z,98901.28
2023-01-10T00:54:15.126Z,98898.66
2023-01-10T00:58:18.732Z,98923.97
2023-01-10T01:02:23.939Z,98927.47
2023-01-10T01:06:27.723Z,98944.88
2023-01-10T01:10:30.756Z,98947.50
2023-01-10T01:14:33.788Z,98954.50
2023-01-10T01:18:38.196Z,98968.47
2023-01-10T01:22:41.693Z,98965.84
2023-01-10T01:26:45.746Z,98963.22
2023-01-10T01:30:49.177Z,98965.00
2023-01-10T01:34:53.687Z,98969.38
2023-01-10T01:38:56.701Z,98968.47
2023-01-10T01:43:00.140Z,98978.06
2023-01-10T01:47:07.654Z,98989.41
2023-01-10T01:51:18.810Z,98980.69
2023-01-10T01:55:22.680Z,98992.03
2023-01-10T01:59:29.969Z,98990.28
2023-01-10T02:03:33.393Z,98979.81
2023-01-10T02:07:39.751Z,99001.66
2023-01-10T02:11:42.737Z,99001.63
2023-01-10T02:15:45.946Z,99007.72
2023-01-10T02:19:53.535Z,99012.09
2023-01-10T02:24:31.055Z,99014.72
2023-01-10T02:29:01.067Z,99024.31
2023-01-10T02:33:15.394Z,99019.03
2023-01-10T02:37:25.926Z,99038.25
2023-01-10T02:41:34.561Z,99033.00
2023-01-10T02:45:42.099Z,99038.25
2023-01-10T02:49:48.378Z,99044.31
2023-01-10T02:53:56.297Z,99039.94
2023-01-10T02:58:09.074Z,99049.56
2023-01-10T03:02:21.904Z,99057.41
2023-01-10T03:06:37.071Z,99052.13
2023-01-10T03:10:45.942Z,99060.00
2023-01-10T03:14:50.370Z,99061.72
2023-01-10T03:18:58.856Z,99072.19
2023-01-10T03:23:05.978Z,99069.56
2023-01-10T03:27:15.042Z,99073.00
2023-01-10T03:31:22.674Z,99084.34
2023-01-10T03:35:31.744Z,99091.31
2023-01-10T03:39:47.405Z,99097.41
2023-01-10T03:44:15.778Z,99104.34
2023-01-10T03:48:22.152Z,99113.09
2023-01-10T03:52:26.765Z,99126.16
2023-01-10T03:56:31.261Z,99124.38
2023-01-10T04:00:34.405Z,99135.72
2023-01-10T04:04:37.638Z,99142.69
2023-01-10T04:08:40.657Z,99145.28
2023-01-10T04:12:45.343Z,99149.63
2023-01-10T04:16:48.337Z,99166.16
2023-01-10T04:20:52.278Z,99163.50
2023-01-10T04:24:55.376Z,99171.34
2023-01-10T04:28:59.761Z,99172.19
2023-01-10T04:33:02.769Z,99181.75
2023-01-10T04:37:05.859Z,99185.22
2023-01-10T04:41:08.869Z,99186.94
2023-01-10T04:45:17.636Z,99194.75
2023-01-10T04:49:20.967Z,99204.31
2023-01-10T04:53:24.269Z,99213.91
2023-01-10T04:57:27.355Z,99220.91
2023-01-10T05:01:31.810Z,99220.91
2023-01-10T05:05:34.939Z,99237.41
2023-01-10T05:09:37.981Z,99240.00
2023-01-10T05:13:42.644Z,99242.63
2023-01-10T05:17:47.207Z,99251.34
2023-01-10T05:21:52.147Z,99260.88
2023-01-10T05:25:55.591Z,99253.91
2023-01-10T05:29:58.605Z,99267.91
2023-01-10T05:34:03.844Z,99274.88
2023-01-10T05:38:07.068Z,99275.72
2023-01-10T05:42:10.079Z,99273.16
2023-01-10T05:46:13.150Z,99271.34
2023-01-10T05:50:19.046Z,99287.06
2023-01-10T05:54:22.205Z,99290.56
2023-01-10T05:58:26.507Z,99296.72
2023-01-10T06:02:29.712Z,99301.94
2023-01-10T06:06:34.453Z,99311.53
2023-01-10T06:10:37.636Z,99313.34
2023-01-10T06:14:40.638Z,99322.00
2023-01-10T06:18:43.700Z,99330.75
2023-01-10T06:22:48.111Z,99350.75
2023-01-10T06:26:51.111Z,99356.00
2023-01-10T06:30:54.288Z,99359.50
2023-01-10T06:34:57.320Z,99361.31
2023-01-10T06:39:02.059Z,99380.44
2023-01-10T06:43:05.107Z,99383.06
2023-01-10T06:47:08.274Z,99397.03
2023-01-10T06:51:11.352Z,99404.91
2023-01-10T06:55:15.900Z,99415.34
2023-01-10T06:59:19.003Z,99418.00
2023-01-10T07:03:22.249Z,99430.19
2023-01-10T07:07:25.389Z,99439.78
2023-01-10T07:11:29.797Z,99450.25
2023-01-10T07:15:32.816Z,99455.47
2023-01-10T07:19:35.855Z,99456.34
2023-01-10T07:23:40.552Z,99481.66
2023-01-10T07:27:45.061Z,99484.28
2023-01-10T07:31:51.242Z,99477.28
2023-01-10T07:35:54.562Z,99487.78
2023-01-10T07:39:57.638Z,99493.03
2023-01-10T07:44:02.101Z,99491.34
2023-01-10T07:53:41.891Z,99514.91
2023-01-10T07:57:44.849Z,99510.59
2023-01-10T08:01:49.634Z,99529.84
2023-01-10T08:05:59.293Z,99545.56
2023-01-10T08:10:02.336Z,99546.44
2023-01-10T08:14:05.452Z,99559.59
2023-01-10T08:18:10.037Z,99570.13
2023-01-10T08:22:13.274Z,99584.09
2023-01-10T08:26:16.296Z,99592.84
2023-01-10T08:30:19.607Z,99592.91
2023-01-10T08:34:25.044Z,99601.66
2023-01-10T08:38:29.449Z,99610.44
2023-01-10T08:42:32.451Z,99616.59
2023-01-10T08:46:35.551Z,99627.97
2023-01-10T08:50:40.088Z,99637.59
2023-01-10T08:54:43.359Z,99644.63
2023-01-10T08:58:46.389Z,99653.34
2023-01-10T09:02:49.463Z,99656.88
2023-01-10T09:06:54.041Z,99665.63
2023-01-10T09:11:00.077Z,99675.28
2023-01-10T09:15:03.550Z,99682.28
2023-01-10T09:19:06.808Z,99692.78
2023-01-10T09:23:13.631Z,99704.13
2023-01-10T09:27:16.861Z,99704.22
2023-01-10T09:31:20.104Z,99699.81
2023-01-10T09:35:23.844Z,99719.13
2023-01-10T09:39:29.396Z,99721.72
2023-01-10T09:43:42.875Z,99720.91
2023-01-10T09:47:54.238Z,99729.66
2023-01-10T09:51:59.499Z,99736.69
2023-01-10T09:56:05.277Z,99735.00
2023-01-10T10:00:16.765Z,99741.13
2023-01-10T10:04:26.968Z,99735.00
2023-01-10T10:08:30.596Z,99739.47
2023-01-10T10:12:44.751Z,99739.47
2023-01-10T10:17:00.619Z,99754.34
2023-01-10T10:21:09.551Z,99763.13
2023-01-10T10:25:26.308Z,99760.56
2023-01-10T10:29:51.966Z,99757.09
2023-01-10T10:34:01.750Z,99750.19
2023-01-10T10:38:13.638Z,99750.19
2023-01-10T10:42:19.244Z,99765.97
2023-01-10T10:46:23.709Z,99765.13
2023-01-10T10:50:32.631Z,99754.63
2023-01-10T10:54:37.225Z,99771.31
2023-01-10T10:58:43.335Z,99768.69
2023-01-10T11:02:51.242Z,99768.75
2023-01-10T11:06:54.504Z,99775.81
2023-01-10T11:10:59.144Z,99776.72
2023-01-10T11:15:02.216Z,99789.03
2023-01-10T11:19:21.949Z,99788.19
2023-01-10T11:23:30.516Z,99786.47
2023-01-10T11:27:38.004Z,99802.25
2023-01-10T11:31:42.182Z,99799.66
2023-01-10T11:35:58.688Z,99796.25
2023-01-10T11:40:26.721Z,99805.06
2023-01-10T11:44:30.938Z,99810.38
2023-01-10T11:49:04.960Z,99807.78
2023-01-10T11:53:34.830Z,99806.09
2023-01-10T11:57:38.778Z,99814.94
2023-01-10T12:01:44.851Z,99812.31
2023-01-10T12:05:52.936Z,99822.78
2023-01-10T12:09:59.441Z,99832.44
2023-01-10T12:14:03.020Z,99821.94
2023-01-10T12:18:07.789Z,99829.00
2023-01-10T12:22:16.779Z,99841.31
2023-01-10T12:26:21.791Z,99842.13
2023-01-10T12:30:32.756Z,99845.63
2023-01-10T12:34:43.021Z,99850.06
2023-01-10T12:39:06.026Z,99846.63
2023-01-10T12:43:47.695Z,99856.22
2023-01-10T12:48:00.295Z,99850.13
2023-01-10T12:52:10.936Z,99865.00
2023-01-10T12:56:16.926Z,99860.63
2023-01-10T13:00:25.325Z,99868.50
2023-01-10T13:04:32.723Z,99874.66
2023-01-10T13:08:38.964Z,99877.34
2023-01-10T13:12:46.776Z,99886.97
2023-01-10T13:16:55.701Z,99885.25
2023-01-10T13:21:08.865Z,99900.06
2023-01-10T13:25:22.357Z,99902.72
2023-01-10T13:29:27.779Z,99913.19
2023-01-10T13:33:36.098Z,99908.78
2023-01-10T13:37:41.320Z,99915.75
2023-01-10T13:42:30.882Z,99911.38
2023-01-10T13:46:42.527Z,99923.59
2023-01-10T13:51:08.863Z,99935.84
2023-01-10T13:55:29.396Z,99939.31
2023-01-10T14:00:23.003Z,99954.19
2023-01-10T14:04:28.849Z,99951.59
2023-01-10T14:08:34.027Z,99960.34
2023-01-10T14:12:41.295Z,99968.19
2023-01-10T14:16:47.753Z,99973.38
2023-01-10T14:20:59.033Z,99976.00
2023-01-10T14:25:05.748Z,99987.28
2023-01-10T14:29:13.881Z,99984.63
2023-01-10T14:33:21.496Z,99993.41
2023-01-10T14:37:32.031Z,99997.75
2023-01-10T14:41:40.402Z,100000.38
2023-01-10T14:45:50.953Z,100002.06
2023-01-10T14:49:55.535Z,100008.16
2023-01-10T14:54:01.453Z,100012.47
2023-01-10T14:58:05.940Z,100022.97
2023-01-10T15:02:17.068Z,100035.19
2023-01-10T15:06:20.394Z,100037.78
2023-01-10T15:10:27.164Z,100042.09
2023-01-10T15:14:33.752Z,100060.47
2023-01-10T15:18:40.388Z,100064.72
2023-01-10T15:22:48.355Z,100077.81
2023-01-10T15:26:53.830Z,100093.53
2023-01-10T15:30:59.608Z,100090.91
2023-01-10T15:35:04.058Z,100101.31
2023-01-10T15:39:07.464Z,100104.69
2023-01-10T15:43:23.865Z,100106.44
2023-01-10T15:47:52.746Z,100134.34
2023-01-10T15:51:56.771Z,100135.09
2023-01-10T15:56:13.405Z,100130.53
2023-01-10T16:00:19.019Z,100140.09
2023-01-10T16:04:23.737Z,100140.09
2023-01-10T16:08:28.959Z,100144.47
2023-01-10T16:12:54.860Z,100146.13
2023-01-10T16:16:57.932Z,100143.53
2023-01-10T16:21:06.179Z,100153.06
2023-01-10T16:25:15.430Z,100167.03
2023-01-10T16:29:20.493Z,100156.56
2023-01-10T16:33:26.987Z,100170.50
2023-01-10T16:37:31.747Z,100173.06
2023-01-10T16:41:52.117Z,100182.69
2023-01-10T16:46:00.026Z,100192.31
2023-01-10T16:50:03.283Z,100197.59
2023-01-10T16:54:07.899Z,100204.47
2023-01-10T16:58:11.826Z,100203.59
2023-01-10T17:02:19.650Z,100193.09
2023-01-10T17:06:22.986Z,100200.91
2023-01-10T17:10:27.637Z,100205.19
2023-01-10T17:14:31.484Z,100215.63
2023-01-10T17:18:34.575Z,100216.50
2023-01-10T17:22:37.612Z,100226.88
2023-01-10T17:26:42.037Z,100231.25
2023-01-10T17:30:45.926Z,100246.09
2023-01-10T17:34:48.981Z,100243.44
2023-01-10T17:38:52.223Z,100244.19
2023-01-10T17:42:56.632Z,100253.75
2023-01-10T17:46:59.656Z,100252.84
2023-01-10T17:51:04.095Z,100258.09
2023-01-10T17:55:08.437Z,100260.63
2023-01-10T17:59:12.983Z,100258.03
2023-01-10T18:03:16.705Z,100271.16
2023-01-10T18:07:19.805Z,100266.75
2023-01-10T18:11:25.044Z,100267.66
2023-01-10T18:15:29.595Z,100271.09
2023-01-10T18:19:32.724Z,100281.59
2023-01-10T18:23:35.956Z,100291.22
2023-01-10T18:27:39.237Z,100284.25
2023-01-10T18:31:43.680Z,100286.81
2023-01-10T18:35:47.492Z,100284.28
2023-01-10T18:39:50.723Z,100289.53
2023-01-10T18:43:53.970Z,100286.06
2023-01-10T18:47:59.226Z,100287.69
2023-01-10T18:52:02.272Z,100285.97
2023-01-10T18:56:06.764Z,100292.94
2023-01-10T19:00:11.113Z,100299.91
2023-01-10T19:04:15.759Z,100303.41
2023-01-10T19:08:18.990Z,100314.72
2023-01-10T19:12:22.277Z,100317.25
2023-01-10T19:16:26.839Z,100339.97
2023-01-10T19:20:31.410Z,100342.50
2023-01-10T19:24:37.663Z,100338.97
2023-01-10T19:28:40.826Z,100345.06
2023-01-10T19:32:44.011Z,100343.28
2023-01-10T19:36:48.410Z,100342.31
2023-01-10T19:40:53.031Z,100344.00
2023-01-10T19:44:56.078Z,100354.44
2023-01-10T19:49:02.105Z,100344.00
2023-01-10T19:53:06.502Z,100339.56
2023-01-10T19:57:09.551Z,100348.19
2023-01-10T20:01:15.183Z,100331.59
2023-01-10T20:05:18.350Z,100334.97
2023-01-10T20:09:22.783Z,100335.75
2023-01-10T20:13:25.851Z,100356.66
2023-01-10T20:17:30.052Z,100352.16
2023-01-10T20:21:33.314Z,100352.13
2023-01-10T20:25:37.681Z,100344.13
2023-01-10T20:29:45.539Z,100340.56
2023-01-10T20:33:49.193Z,100350.06
2023-01-10T20:37:52.296Z,100348.19
2023-01-10T20:41:56.704Z,100362.22
2023-01-10T20:46:05.646Z,100361.16
2023-01-10T20:50:10.022Z,100362.84
2023-01-10T20:54:13.234Z,100375.06
2023-01-10T20:58:17.652Z,100362.84
2023-01-10T21:02:20.704Z,100361.06
2023-01-10T21:06:23.940Z,100360.09
2023-01-10T21:10:26.990Z,100346.97
2023-01-10T21:14:31.416Z,100352.22
2023-01-10T21:18:40.884Z,100356.47
2023-01-10T21:22:44.419Z,100351.16
2023-01-10T21:26:48.583Z,100345.81
2023-01-10T21:30:53.891Z,100351.06
2023-01-10T21:34:56.931Z,100355.41
2023-01-10T21:38:59.955Z,100357.97
2023-01-10T21:43:03.052Z,100354.53
2023-01-10T21:47:07.661Z,100355.41
2023-01-10T21:51:10.714Z,100351.97
2023-01-10T21:55:16.046Z,100357.19
2023-01-10T21:59:19.223Z,100345.81
2023-01-10T22:03:23.788Z,100348.47
2023-01-10T22:07:29.425Z,100346.63
2023-01-10T22:11:32.517Z,100352.75
2023-01-10T22:15:37.613Z,100345.66
2023-01-10T22:19:42.288Z,100352.66
2023-01-10T22:23:45.979Z,100356.09
2023-01-10T22:27:49.291Z,100358.66
2023-01-10T22:31:52.950Z,100352.53
2023-01-10T22:35:57.853Z,100359.56
2023-01-10T22:40:01.217Z,100363.94
2023-01-10T22:44:05.281Z,100361.25
2023-01-10T22:48:08.522Z,100377.78
2023-01-10T22:52:12.962Z,100364.75
2023-01-10T22:56:16.234Z,100371.63
2023-01-10T23:00:19.931Z,100379.63
2023-01-10T23:04:24.240Z,100363.97
2023-01-10T23:08:29.217Z,100357.81
2023-01-10T23:12:32.282Z,100361.38
2023-01-10T23:16:35.515Z,100359.56
2023-01-10T23:20:38.725Z,100357.81
2023-01-10T23:24:43.143Z,100364.81
2023-01-10T23:28:48.244Z,100362.19
2023-01-10T23:32:51.845Z,100368.28
2023-01-10T23:36:55.124Z,100363.88
2023-01-10T23:41:00.084Z,100353.31
2023-01-10T23:45:03.153Z,100365.53
2023-01-10T23:49:06.215Z,100353.22
2023-01-10T23:53:10.254Z,100356.72
2023-01-10T23:57:14.638Z,100354.00
